TimeEST,TemperatureF,Dew PointF,Humidity,Sea Level PressureIn,VisibilityMPH,Wind Direction,Wind SpeedMPH,Gust SpeedMPH,PrecipitationIn,Events,Conditions,WindDirDegrees,DateUTC
12:14 AM,35.6,26.6,70,29.96,10.0,West,9.2,-,N/A,,Overcast,260,2013-01-17 05:14:00
12:34 AM,35.6,26.6,70,29.96,10.0,West,6.9,-,N/A,,Overcast,260,2013-01-17 05:34:00
12:54 AM,35.6,26.6,70,29.97,10.0,West,8.1,-,N/A,,Overcast,260,2013-01-17 05:54:00
1:14 AM,35.6,26.6,70,29.97,10.0,West,9.2,-,N/A,,Overcast,270,2013-01-17 06:14:00
1:35 AM,35.6,26.6,70,29.98,10.0,West,8.1,-,N/A,,Overcast,260,2013-01-17 06:35:00
1:54 AM,35.6,26.6,70,29.99,10.0,West,8.1,-,N/A,,Overcast,260,2013-01-17 06:54:00
2:14 AM,35.6,26.6,70,30.00,10.0,West,5.8,-,N/A,,Overcast,260,2013-01-17 07:14:00
2:34 AM,35.6,26.6,70,30.01,10.0,West,5.8,-,N/A,,Overcast,260,2013-01-17 07:34:00
3:15 AM,35.6,26.6,70,30.02,10.0,West,6.9,-,N/A,,Overcast,270,2013-01-17 08:15:00
3:34 AM,35.6,28.4,75,30.03,10.0,West,5.8,-,N/A,,Overcast,270,2013-01-17 08:34:00
3:54 AM,35.6,26.6,70,30.03,10.0,West,5.8,-,N/A,,Overcast,270,2013-01-17 08:54:00
4:15 AM,35.6,26.6,70,30.03,10.0,West,4.6,-,N/A,,Overcast,280,2013-01-17 09:15:00
4:34 AM,35.6,26.6,70,30.03,10.0,West,4.6,-,N/A,,Overcast,280,2013-01-17 09:34:00
4:54 AM,35.6,26.6,70,30.04,10.0,West,4.6,-,N/A,,Overcast,280,2013-01-17 09:54:00
5:14 AM,35.6,28.4,75,30.05,10.0,NW,6.9,-,N/A,,Overcast,310,2013-01-17 10:14:00
5:34 AM,35.6,28.4,75,30.06,10.0,NW,8.1,-,N/A,,Overcast,310,2013-01-17 10:34:00
5:54 AM,35.6,28.4,75,30.07,10.0,NW,6.9,-,N/A,,Overcast,310,2013-01-17 10:54:00
6:14 AM,35.6,28.4,75,30.08,10.0,WNW,4.6,-,N/A,,Overcast,300,2013-01-17 11:14:00
6:34 AM,33.8,26.6,75,30.08,10.0,WNW,4.6,-,N/A,,Mostly Cloudy,300,2013-01-17 11:34:00
7:14 AM,33.8,26.6,75,30.10,10.0,NW,5.8,-,N/A,,Clear,320,2013-01-17 12:14:00
7:34 AM,33.8,26.6,75,30.10,10.0,NW,6.9,-,N/A,,Scattered Clouds,320,2013-01-17 12:34:00
7:54 AM,32.0,26.6,80,30.11,10.0,NW,5.8,-,N/A,,Clear,310,2013-01-17 12:54:00
8:14 AM,32.0,24.8,75,30.11,10.0,NW,4.6,-,N/A,,Clear,310,2013-01-17 13:14:00
8:34 AM,32.0,24.8,75,30.12,10.0,Calm,Calm,-,N/A,,Clear,0,2013-01-17 13:34:00
8:54 AM,32.0,24.8,75,30.13,10.0,Calm,Calm,-,N/A,,Clear,0,2013-01-17 13:54:00
9:14 AM,30.2,24.8,80,30.14,10.0,Calm,Calm,-,N/A,,Clear,0,2013-01-17 14:14:00
9:35 AM,32.0,24.8,75,30.15,10.0,Calm,Calm,-,N/A,,Clear,0,2013-01-17 14:35:00
9:54 AM,33.8,24.8,70,30.15,10.0,NNW,8.1,-,N/A,,Clear,330,2013-01-17 14:54:00
10:14 AM,33.8,24.8,70,30.16,10.0,NNW,4.6,-,N/A,,Scattered Clouds,330,2013-01-17 15:14:00
10:35 AM,33.8,24.8,70,30.17,10.0,NNW,8.1,-,N/A,,Scattered Clouds,330,2013-01-17 15:35:00
10:54 AM,33.8,23.0,65,30.17,10.0,NW,9.2,-,N/A,,Scattered Clouds,320,2013-01-17 15:54:00
11:14 AM,33.8,23.0,65,30.17,10.0,NW,5.8,-,N/A,,Scattered Clouds,320,2013-01-17 16:14:00
11:34 AM,35.6,21.2,56,30.17,10.0,NNW,6.9,-,N/A,,Scattered Clouds,330,2013-01-17 16:34:00
11:54 AM,33.8,21.2,60,30.16,10.0,NW,6.9,10.4,N/A,,Mostly Cloudy,310,2013-01-17 16:54:00
12:14 PM,35.6,19.4,52,30.15,10.0,NW,10.4,-,N/A,,Scattered Clouds,310,2013-01-17 17:14:00
12:34 PM,35.6,19.4,52,30.14,10.0,WNW,8.1,-,N/A,,Scattered Clouds,300,2013-01-17 17:34:00
12:54 PM,37.4,19.4,48,30.12,10.0,WNW,9.2,-,N/A,,Clear,290,2013-01-17 17:54:00
1:14 PM,37.4,19.4,48,30.12,10.0,NW,9.2,-,N/A,,Scattered Clouds,310,2013-01-17 18:14:00
1:34 PM,37.4,19.4,48,30.11,10.0,WNW,10.4,-,N/A,,Scattered Clouds,300,2013-01-17 18:34:00
1:54 PM,37.4,19.4,48,30.11,10.0,WNW,6.9,-,N/A,,Mostly Cloudy,290,2013-01-17 18:54:00
2:14 PM,37.4,19.4,48,30.10,10.0,WNW,10.4,-,N/A,,Mostly Cloudy,300,2013-01-17 19:14:00
2:34 PM,37.4,19.4,48,30.09,10.0,NW,11.5,-,N/A,,Overcast,310,2013-01-17 19:34:00
2:54 PM,35.6,19.4,52,30.09,10.0,WNW,9.2,18.4,N/A,,Scattered Clouds,300,2013-01-17 19:54:00
3:15 PM,37.4,17.6,45,30.08,10.0,WNW,12.7,19.6,N/A,,Scattered Clouds,300,2013-01-17 20:15:00
3:34 PM,37.4,17.6,45,30.08,10.0,WNW,15.0,20.7,N/A,,Scattered Clouds,290,2013-01-17 20:34:00
3:54 PM,37.4,19.4,48,30.09,10.0,WNW,13.8,17.3,N/A,,Clear,300,2013-01-17 20:54:00
4:15 PM,35.6,17.6,48,30.10,10.0,NW,13.8,-,N/A,,Clear,310,2013-01-17 21:15:00
4:34 PM,35.6,17.6,48,30.10,10.0,NW,12.7,19.6,N/A,,Clear,310,2013-01-17 21:34:00
4:54 PM,35.6,17.6,48,30.12,10.0,NW,12.7,19.6,N/A,,Scattered Clouds,310,2013-01-17 21:54:00
5:14 PM,33.8,17.6,52,30.13,10.0,NW,15.0,-,N/A,,Scattered Clouds,320,2013-01-17 22:14:00
5:34 PM,32.0,15.8,51,30.14,10.0,WNW,20.7,27.6,N/A,,Clear,300,2013-01-17 22:34:00
5:54 PM,32.0,15.8,51,30.15,10.0,NW,13.8,21.9,N/A,,Scattered Clouds,310,2013-01-17 22:54:00
6:14 PM,30.2,14.0,51,30.17,10.0,WNW,16.1,24.2,N/A,,Scattered Clouds,300,2013-01-17 23:14:00
6:34 PM,30.2,14.0,51,30.18,10.0,WNW,10.4,20.7,N/A,,Clear,300,2013-01-17 23:34:00
6:54 PM,28.4,12.2,51,30.20,10.0,WNW,17.3,24.2,N/A,,Clear,300,2013-01-17 23:54:00
7:14 PM,28.4,14.0,55,30.20,10.0,NW,8.1,11.5,N/A,,Clear,310,2013-01-18 00:14:00
7:34 PM,28.4,14.0,55,30.21,10.0,WNW,12.7,17.3,N/A,,Scattered Clouds,290,2013-01-18 00:34:00
7:54 PM,26.6,12.2,55,30.23,10.0,WNW,16.1,-,N/A,,Mostly Cloudy,290,2013-01-18 00:54:00
8:14 PM,26.6,12.2,55,30.24,10.0,WNW,17.3,25.3,N/A,,Scattered Clouds,290,2013-01-18 01:14:00
8:34 PM,24.8,12.2,59,30.25,10.0,WNW,12.7,19.6,N/A,,Scattered Clouds,290,2013-01-18 01:34:00
8:55 PM,24.8,8.6,50,30.26,10.0,NW,18.4,24.2,N/A,,Mostly Cloudy,310,2013-01-18 01:55:00
9:14 PM,24.8,3.2,40,30.26,10.0,NW,18.4,28.8,N/A,,Scattered Clouds,320,2013-01-18 02:14:00
9:54 PM,23.0,3.2,43,30.28,10.0,NNW,18.4,26.5,N/A,,Mostly Cloudy,330,2013-01-18 02:54:00
10:14 PM,21.2,3.2,46,30.28,10.0,NNW,19.6,26.5,N/A,,Overcast,330,2013-01-18 03:14:00
10:34 PM,21.2,3.2,46,30.29,10.0,NW,16.1,20.7,N/A,,Scattered Clouds,320,2013-01-18 03:34:00
10:54 PM,21.2,1.4,42,30.29,10.0,NW,13.8,20.7,N/A,,Scattered Clouds,310,2013-01-18 03:54:00
11:14 PM,21.2,1.4,42,30.29,10.0,NNW,8.1,-,N/A,,Scattered Clouds,330,2013-01-18 04:14:00
11:34 PM,21.2,3.2,46,30.29,10.0,NW,9.2,-,N/A,,Mostly Cloudy,320,2013-01-18 04:34:00
11:54 PM,21.2,3.2,46,30.29,10.0,NW,8.1,-,N/A,,Overcast,320,2013-01-18 04:54:00